Date,TemperatureHighF,TemperatureAvgF,TemperatureLowF,DewpointHighF,DewpointAvgF,DewpointLowF,HumidityHigh,HumidityAvg,HumidityLow,PressureMaxIn,PressureMinIn,WindSpeedMaxMPH,WindSpeedAvgMPH,GustSpeedMaxMPH,PrecipitationSumIn
2013-1-1,21.5,15.4,8.2,19.0,12.3,3.0,93,87,78,30.33,30.07,11,1,11,0.00
2013-1-2,32.3,24.3,10.0,28.3,21.6,7.4,94,89,84,30.24,30.02,12,2,13,0.00
2013-1-3,27.0,16.6,8.5,23.3,12.8,4.7,90,85,78,30.41,30.24,15,2,15,0.00
2013-1-4,29.7,18.1,8.2,17.8,12.5,5.0,89,79,59,30.24,30.12,8,0,8,0.00
2013-1-5,28.0,14.8,3.3,20.5,10.9,0.2,93,84,70,30.25,30.01,18,3,18,0.00
2013-1-6,28.2,17.8,6.8,21.8,13.5,3.8,92,83,68,30.32,29.97,15,2,15,0.00
2013-1-7,39.4,27.5,15.0,27.0,22.1,12.7,94,81,60,30.03,29.94,10,1,10,0.00
2013-1-8,34.0,23.6,11.0,30.5,20.5,8.4,96,88,81,30.10,29.78,8,1,8,0.00
2013-1-9,40.7,33.0,24.3,30.0,27.5,20.9,93,81,63,30.38,30.10,12,2,12,0.00
2013-1-10,39.7,33.8,29.6,33.9,29.9,25.5,97,86,58,30.24,29.60,16,3,16,0.00
2013-1-11,36.9,32.5,17.8,36.6,31.7,14.2,99,97,87,29.63,29.34,18,3,18,0.00
2013-1-12,17.6,10.1,5.6,14.0,4.9,0.6,87,79,70,30.22,29.63,18,5,18,0.00
2013-1-13,14.1,7.8,3.7,6.9,2.3,-1.4,89,78,67,30.36,30.18,11,2,11,0.00
2013-1-14,24.6,14.3,5.1,15.0,9.1,2.2,91,80,64,30.49,30.33,6,0,9,0.00
2013-1-15,30.0,20.0,10.0,15.9,11.2,6.2,88,70,46,30.33,29.90,13,1,13,0.00
2013-1-16,43.2,30.4,14.9,34.2,25.3,9.7,92,81,68,30.30,29.81,15,2,15,0.00
2013-1-17,33.1,24.8,14.0,28.5,19.3,6.3,94,80,59,30.44,30.17,12,1,12,0.00
2013-1-18,47.2,36.2,29.3,33.1,29.4,25.1,91,77,57,30.17,29.81,14,2,14,0.00
2013-1-19,42.4,30.3,7.5,34.0,22.5,-0.2,86,73,60,30.38,29.78,25,4,25,0.00
2013-1-20,29.1,14.1,0.0,17.0,7.5,-7.0,83,74,60,30.50,30.13,12,2,18,0.00
2013-1-21,22.4,13.3,-0.6,14.8,6.2,-6.3,78,73,67,30.48,30.36,11,2,11,0.00
2013-1-22,14.2,9.6,2.7,9.7,3.1,-3.4,83,74,62,30.46,30.25,9,1,9,0.00
2013-1-23,17.4,9.2,-2.4,10.8,3.4,-10.0,89,77,62,30.64,30.22,13,2,13,0.00
2013-1-24,14.9,4.9,-4.4,6.9,-2.7,-12.5,74,70,65,30.69,30.17,17,3,17,0.00
2013-1-25,27.0,16.2,7.2,21.6,10.1,0.5,87,76,63,30.34,30.13,15,2,15,0.00
2013-1-26,32.9,19.4,4.8,25.5,12.5,-1.0,78,74,66,30.34,30.01,14,2,14,0.00
2013-1-27,34.8,33.5,31.5,34.3,30.8,25.1,99,90,76,30.01,29.73,13,1,13,0.00
2013-1-28,35.4,34.2,32.6,35.1,33.9,32.3,99,99,98,29.85,29.60,7,0,7,0.00
2013-1-29,36.1,30.5,22.9,32.8,27.4,19.1,99,88,72,29.85,29.60,14,3,14,0.00
2013-1-30,23.0,13.9,0.2,19.5,9.1,-6.4,86,80,73,29.98,29.80,18,5,18,0.00
2013-1-31,0.2,-4.3,-6.7,-6.1,-10.6,-13.3,78,74,68,30.50,29.98,19,5,19,0.00